Time;durP1;ratioP1;P1;durP2;ratioP2;P2;SDS_P1;SDS_P2;PMS_P1;PMS_P2;Temp;Humidity;BMP_temperature;BMP_pressure;BME280_temperature;BME280_humidity;BME280_pressure;Samples;Min_cycle;Max_cycle;Signal;HPM_P1;HPM_P2
2021/05/14 00:00:15;;;;;;;5.40;3.92;;;10.20;93.40;;;9.52;75.90;93792.03;4678874;30;20223;-78
2021/05/14 00:05:20;;;;;;;4.38;3.65;;;10.20;93.40;;;9.53;75.66;93785.78;5148688;27;20550;-78
2021/05/14 00:07:50;;;;;;;5.10;4.60;;;10.20;93.50;;;9.60;75.69;93815.31;5086198;28;20227;-80
2021/05/14 00:10:20;;;;;;;5.00;4.50;;;10.20;93.40;;;9.61;75.89;93804.63;5067629;28;20211;-80
2021/05/14 00:12:52;;;;;;;5.40;4.55;;;10.20;93.40;;;9.64;75.97;93800.00;5007140;28;20297;-78
2021/05/14 00:15:19;;;;;;;6.07;4.80;;;10.20;93.50;;;9.63;75.56;93806.25;5010998;28;20628;-78
2021/05/14 00:17:45;;;;;;;5.70;5.00;;;10.20;93.30;;;9.65;75.59;93805.00;4979332;28;20281;-78
2021/05/14 00:20:13;;;;;;;5.32;4.63;;;10.20;93.50;;;9.68;75.90;93809.84;4878800;29;20233;-78
2021/05/14 00:22:40;;;;;;;8.02;5.70;;;10.20;93.50;;;9.65;75.76;93810.25;4805613;29;20274;-78
2021/05/14 00:27:30;;;;;;;7.32;5.55;;;10.30;93.30;;;9.59;75.21;93798.00;5145223;27;20657;-78
2021/05/14 00:29:57;;;;;;;6.30;5.50;;;10.20;93.40;;;9.54;75.54;93800.47;5089195;28;20206;-78
2021/05/14 00:32:23;;;;;;;5.93;5.32;;;10.20;93.30;;;9.60;75.99;93813.50;5068427;28;20306;-78
2021/05/14 00:34:50;;;;;;;8.73;6.10;;;10.20;93.40;;;9.59;75.67;93808.47;5050289;28;20217;-78
2021/05/14 00:37:17;;;;;;;9.27;5.32;;;10.20;93.50;;;9.55;75.81;93804.69;5031106;28;20276;-78
2021/05/14 00:39:44;;;;;;;7.18;6.45;;;10.20;93.40;;;9.59;75.87;93806.69;4961347;28;20199;-78
2021/05/14 00:42:11;;;;;;;6.80;5.88;;;10.20;93.40;;;9.61;75.53;93807.25;4926779;28;20658;-78
2021/05/14 00:44:45;;;;;;;8.43;5.88;;;10.20;93.20;;;9.61;75.53;93811.69;4869702;29;20206;-77
2021/05/14 00:49:11;;;;;;;6.72;6.03;;;10.20;93.40;;;9.56;75.70;93796.63;5129125;27;20582;-78
2021/05/14 00:51:38;;;;;;;6.47;5.32;;;10.20;93.40;;;9.56;75.89;93824.63;5085280;28;20237;-79
2021/05/14 00:54:05;;;;;;;7.93;5.60;;;10.20;93.40;;;9.56;75.57;93820.19;5097928;28;20480;-78
2021/05/14 00:56:31;;;;;;;8.13;5.70;;;10.20;93.40;;;9.56;75.85;93808.94;5085549;28;20203;-78
2021/05/14 00:58:58;;;;;;;7.00;6.30;;;10.30;93.50;;;9.59;76.00;93814.53;5038420;28;20228;-78
2021/05/14 01:01:24;;;;;;;6.85;6.10;;;10.20;93.50;;;9.60;75.81;93817.94;4968477;28;20220;-78
2021/05/14 01:03:51;;;;;;;6.63;5.68;;;10.20;93.50;;;9.63;75.98;93827.19;5012841;28;20233;-78
2021/05/14 01:06:18;;;;;;;7.35;6.40;;;10.20;93.40;;;9.60;76.00;93805.66;4849475;28;20208;-78
2021/05/14 01:10:37;;;;;;;7.60;6.18;;;10.20;93.50;;;9.60;75.80;93813.50;5134241;27;20558;-78
2021/05/14 01:13:05;;;;;;;7.25;6.55;;;10.20;93.50;;;9.60;75.85;93818.72;5108089;28;20228;-78
2021/05/14 01:15:31;;;;;;;7.65;6.05;;;10.20;93.50;;;9.60;75.82;93810.88;5055206;28;20292;-78
2021/05/14 01:17:58;;;;;;;6.68;5.45;;;10.20;93.50;;;9.61;75.66;93820.34;5078430;28;20770;-78
2021/05/14 01:20:30;;;;;;;7.50;5.75;;;10.20;93.40;;;9.46;75.64;93798.94;5044839;28;20300;-78
2021/05/14 01:22:57;;;;;;;6.90;5.20;;;10.20;93.30;;;9.61;75.26;93819.56;5012350;28;20243;-78
2021/05/14 01:25:24;;;;;;;6.18;5.00;;;10.20;93.30;;;9.63;75.73;93819.34;4942670;28;20663;-78
2021/05/14 01:27:52;;;;;;;6.25;5.30;;;10.20;93.50;;;9.64;75.68;93828.78;4816092;29;20235;-78
2021/05/14 01:32:18;;;;;;;7.57;5.70;;;10.20;93.50;;;9.59;75.51;93813.72;5131948;27;21174;-78
2021/05/14 01:34:45;;;;;;;7.82;5.50;;;10.20;93.40;;;9.60;75.73;93816.13;5108134;28;20199;-78
2021/05/14 01:37:12;;;;;;;6.03;5.47;;;10.20;93.50;;;9.57;75.41;93820.97;5093000;28;20585;-78
2021/05/14 01:39:38;;;;;;;5.32;4.72;;;10.20;93.30;;;9.57;75.78;93819.19;5090621;27;20198;-79
2021/05/14 01:42:05;;;;;;;6.22;5.47;;;10.20;93.50;;;9.61;76.15;93819.56;5072743;28;20229;-78
2021/05/14 01:44:32;;;;;;;5.20;4.47;;;10.20;93.60;;;9.63;76.03;93817.53;5005377;28;20234;-78
2021/05/14 01:46:58;;;;;;;5.03;4.45;;;10.20;93.50;;;9.63;75.75;93819.34;4957153;28;20211;-78
2021/05/14 01:49:25;;;;;;;6.18;5.22;;;10.20;93.50;;;9.53;75.69;93807.53;4788537;29;20223;-77
2021/05/14 01:54:00;;;;;;;6.40;4.75;;;10.20;93.50;;;9.61;75.97;93822.97;5132578;27;20578;-80
2021/05/14 01:56:26;;;;;;;5.30;4.68;;;10.20;93.50;;;9.58;75.55;93812.94;5122260;28;20208;-79
2021/05/14 01:58:54;;;;;;;5.07;4.68;;;10.20;93.40;;;9.55;75.53;93817.78;5130271;27;20320;-80
2021/05/14 02:01:21;;;;;;;6.10;5.20;;;10.20;93.50;;;9.60;75.93;93817.94;5067416;28;20208;-78
2021/05/14 02:03:48;;;;;;;7.20;4.95;;;10.20;93.50;;;9.59;75.58;93814.53;5063173;28;20222;-80
2021/05/14 02:06:14;;;;;;;5.40;4.90;;;10.20;93.40;;;9.58;76.09;93817.34;4914135;28;20590;-80
2021/05/14 02:08:41;;;;;;;7.38;4.97;;;10.20;93.50;;;9.57;75.86;93806.09;4909450;29;20237;-78
2021/05/14 02:11:09;;;;;;;5.03;4.60;;;10.20;93.50;;;9.58;75.88;93812.94;4737107;29;20220;-77
2021/05/14 02:13:42;;;;;;;6.97;5.28;;;10.20;93.50;;;9.60;75.57;93826.59;5133487;27;20328;-78
2021/05/14 02:16:11;;;;;;;5.75;5.10;;;10.20;93.30;;;9.63;76.09;93822.78;5119631;27;20204;-78
2021/05/14 02:18:39;;;;;;;7.03;5.00;;;10.20;93.50;;;9.49;75.66;93810.78;5128046;27;20274;-78
2021/05/14 02:21:07;;;;;;;6.22;5.00;;;10.30;93.40;;;9.54;75.29;93824.81;5088325;28;20209;-78
2021/05/14 02:23:35;;;;;;;5.32;4.82;;;10.20;93.40;;;9.52;75.43;93824.25;5060316;28;20776;-78
2021/05/14 02:26:02;;;;;;;5.93;5.28;;;10.20;93.30;;;9.51;75.87;93816.59;4946019;28;20214;-81
2021/05/14 02:28:28;;;;;;;6.47;4.70;;;10.20;93.50;;;9.41;75.80;93803.97;4907266;29;20642;-78
2021/05/14 02:30:55;;;;;;;5.70;5.20;;;10.20;93.40;;;9.56;75.53;93824.63;4800589;29;20225;-78
2021/05/14 02:36:08;;;;;;;4.88;4.40;;;10.20;93.40;;;9.52;75.62;93834.72;5134160;27;20652;-80
2021/05/14 02:38:35;;;;;;;5.47;4.97;;;10.20;93.40;;;9.49;75.52;93829.91;5103558;27;20225;-78
2021/05/14 02:41:04;;;;;;;5.75;4.70;;;10.10;93.40;;;9.45;75.65;93819.03;5101110;28;20205;-78
2021/05/14 02:43:31;;;;;;;5.68;4.47;;;10.10;93.50;;;9.51;75.64;93833.13;5081345;28;20235;-78
2021/05/14 02:45:58;;;;;;;6.22;4.45;;;10.10;93.50;;;9.52;76.00;93826.88;5040209;28;20205;-78
2021/05/14 02:48:24;;;;;;;5.22;4.60;;;10.10;93.50;;;9.55;75.60;93833.50;4980575;28;20218;-78
2021/05/14 02:50:50;;;;;;;4.45;4.05;;;10.10;93.50;;;9.52;75.16;93837.34;5021581;28;20240;-78
2021/05/14 02:53:18;;;;;;;5.78;4.40;;;10.10;93.10;;;9.49;75.67;93829.09;4956293;28;20244;-78
2021/05/14 02:55:43;;;;;;;5.53;4.20;;;10.10;93.30;;;9.53;75.76;93840.75;4819228;29;20228;-78
2021/05/14 02:58:21;;;;;;;4.35;3.95;;;10.10;93.50;;;9.47;75.69;93831.91;5138038;27;20730;-80
2021/05/14 03:00:48;;;;;;;4.53;4.13;;;10.10;93.60;;;9.48;75.56;93832.72;5108106;28;20197;-78
2021/05/14 03:03:15;;;;;;;4.75;4.10;;;10.10;93.30;;;9.52;76.00;93831.28;5123003;28;20251;-78
2021/05/14 03:05:41;;;;;;;5.50;4.05;;;10.10;93.40;;;9.49;75.58;93837.75;5066596;28;20207;-78
2021/05/14 03:08:08;;;;;;;4.05;3.65;;;10.10;93.30;;;9.54;76.23;93835.28;5041633;28;20224;-78
2021/05/14 03:10:35;;;;;;;5.25;4.07;;;10.20;93.50;;;9.53;75.75;93836.31;5027529;28;20199;-78
2021/05/14 03:13:01;;;;;;;4.30;3.90;;;10.20;93.40;;;9.50;75.57;93838.56;4974187;28;20639;-78
2021/05/14 03:15:28;;;;;;;4.35;3.95;;;10.10;93.30;;;9.49;75.87;93835.13;4805575;29;20242;-78
2021/05/14 03:19:33;;;;;;;4.45;3.95;;;10.20;93.40;;;9.49;75.87;93836.97;5150400;27;20567;-77
2021/05/14 03:21:59;;;;;;;4.80;4.32;;;10.10;93.60;;;9.46;76.12;93838.19;5110424;27;20205;-78
2021/05/14 03:24:27;;;;;;;3.80;3.50;;;10.10;93.60;;;9.51;75.76;93848.00;5072346;28;20214;-80
2021/05/14 03:26:54;;;;;;;4.85;3.58;;;10.10;93.50;;;9.44;75.66;93833.13;5088129;28;20679;-80
2021/05/14 03:29:21;;;;;;;4.22;3.80;;;10.10;93.50;;;9.43;76.00;93826.31;5061158;28;20251;-80
2021/05/14 03:31:49;;;;;;;3.58;3.28;;;10.10;93.50;;;9.54;76.07;93842.34;5042784;28;20192;-80
2021/05/14 03:34:15;;;;;;;4.50;3.55;;;10.10;93.50;;;9.52;75.37;93837.34;4956783;28;20657;-78
2021/05/14 03:36:42;;;;;;;3.47;3.17;;;10.10;93.40;;;9.52;75.77;93839.97;4817212;29;20565;-78
2021/05/14 03:41:17;;;;;;;3.60;3.30;;;10.10;93.80;;;9.48;75.80;93840.59;5134258;27;20559;-78
2021/05/14 03:43:45;;;;;;;4.07;3.63;;;10.10;93.50;;;9.52;75.85;93850.44;5072025;28;20671;-80
2021/05/14 03:46:12;;;;;;;3.45;3.15;;;10.10;93.50;;;9.54;76.05;93842.34;5084532;28;20298;-80
2021/05/14 03:48:38;;;;;;;3.35;3.05;;;10.20;93.60;;;9.54;76.05;93850.22;5027127;28;20375;-78
2021/05/14 03:51:05;;;;;;;5.15;3.25;;;10.10;93.50;;;9.54;75.95;93853.63;4976135;28;20400;-78
2021/05/14 03:53:32;;;;;;;3.40;3.10;;;10.20;93.50;;;9.49;75.53;93848.22;4832915;29;20316;-78
2021/05/14 03:55:58;;;;;;;3.50;3.05;;;10.20;93.40;;;9.53;75.69;93862.50;4757017;29;20743;-78
2021/05/14 03:58:36;;;;;;;3.50;3.20;;;10.20;93.40;;;9.53;75.95;93853.84;5114478;27;20543;-80
2021/05/14 04:01:04;;;;;;;3.53;2.70;;;10.20;93.60;;;9.55;75.96;93860.47;5088648;28;20209;-80
2021/05/14 04:03:30;;;;;;;3.38;3.08;;;10.10;93.60;;;9.64;76.43;93862.84;5096325;28;20263;-79
2021/05/14 04:05:57;;;;;;;3.90;3.50;;;10.20;93.70;;;9.65;75.90;93864.44;5068536;28;20256;-78
2021/05/14 04:08:25;;;;;;;4.82;3.28;;;10.30;93.60;;;9.66;75.89;93872.06;5067860;28;20251;-78
2021/05/14 04:11:07;;;;;;;3.70;3.40;;;10.20;93.70;;;9.63;76.12;93856.81;4970517;28;20215;-78
2021/05/14 04:16:20;;;;;;;4.25;3.25;;;10.20;93.60;;;9.60;75.82;93870.31;4731442;29;20209;-78
2021/05/14 04:20:48;;;;;;;4.28;3.63;;;10.20;93.60;;;9.66;76.15;93874.69;5148284;27;20562;-78
2021/05/14 04:23:16;;;;;;;3.60;3.30;;;10.20;93.70;;;9.60;76.25;93876.31;5115424;28;20228;-79
2021/05/14 04:25:42;;;;;;;3.67;3.33;;;10.20;93.50;;;9.68;75.99;93880.53;5068828;28;20253;-78
2021/05/14 04:28:09;;;;;;;3.75;3.45;;;10.20;93.60;;;9.68;76.10;93880.53;5019894;28;20229;-78
2021/05/14 04:30:36;;;;;;;4.00;3.60;;;10.30;93.40;;;9.67;76.03;93870.28;5004079;28;20283;-79
2021/05/14 04:33:04;;;;;;;3.55;3.20;;;10.30;93.70;;;9.76;76.37;93887.31;4985996;28;20229;-78
2021/05/14 04:35:31;;;;;;;3.83;3.20;;;10.30;93.70;;;9.77;76.30;93883.69;4908311;28;20217;-78
2021/05/14 04:37:58;;;;;;;4.32;3.30;;;10.30;93.70;;;9.75;75.81;93881.28;4804537;29;20609;-78
2021/05/14 04:43:02;;;;;;;3.80;3.47;;;10.30;93.70;;;9.81;76.04;93882.25;5141005;27;20648;-81
2021/05/14 04:45:30;;;;;;;3.85;3.45;;;10.40;93.70;;;9.85;76.05;93891.28;5104050;28;20205;-79
2021/05/14 04:47:57;;;;;;;4.13;3.50;;;10.40;93.80;;;9.81;76.06;93891.94;5087648;28;20230;-77
2021/05/14 04:50:25;;;;;;;4.18;3.78;;;10.40;93.70;;;9.85;76.38;93890.47;5064239;28;20611;-78
2021/05/14 04:53:07;;;;;;;4.28;3.25;;;10.40;93.80;;;9.86;75.79;93890.28;5031169;28;20232;-79
2021/05/14 04:55:34;;;;;;;4.93;3.67;;;10.40;93.60;;;9.89;76.27;93891.66;5030034;28;20212;-81
2021/05/14 04:58:01;;;;;;;3.83;3.53;;;10.40;93.80;;;9.89;76.15;93891.66;4948885;28;20767;-81
2021/05/14 05:00:28;;;;;;;3.58;3.28;;;10.50;93.70;;;9.85;75.87;93893.91;4803581;29;20214;-79
2021/05/14 05:05:26;;;;;;;3.83;3.50;;;10.50;93.70;;;9.93;76.29;93898.06;5150247;27;20732;-79
2021/05/14 05:07:53;;;;;;;4.07;3.70;;;10.50;93.80;;;9.96;76.19;93913.38;5094529;28;20221;-79
2021/05/14 05:10:20;;;;;;;3.50;3.20;;;10.50;93.90;;;9.98;76.38;93903.47;5103391;28;20883;-78
2021/05/14 05:12:47;;;;;;;5.72;4.00;;;10.50;93.90;;;10.02;76.76;93896.81;5067468;28;20219;-77
2021/05/14 05:15:14;;;;;;;4.63;4.03;;;10.50;94.00;;;10.02;76.42;93907.28;5005986;28;20206;-78
2021/05/14 05:17:41;;;;;;;4.60;4.07;;;10.50;93.90;;;9.97;76.09;93885.34;4889858;29;20224;-78
2021/05/14 05:20:09;;;;;;;5.20;4.28;;;10.60;94.00;;;10.14;76.49;93925.72;4845722;29;20216;-79
2021/05/14 05:22:36;;;;;;;5.63;4.32;;;10.60;94.00;;;10.10;76.37;93907.00;4655823;30;20257;-80
2021/05/14 05:27:07;;;;;;;4.63;4.10;;;10.60;94.00;;;10.19;76.60;93918.06;5134573;27;20558;-78
2021/05/14 05:29:37;;;;;;;4.38;3.90;;;10.70;94.00;;;10.24;76.34;93923.44;5108096;28;20193;-79
2021/05/14 05:32:04;;;;;;;5.05;4.32;;;10.70;94.00;;;10.25;76.85;93913.75;5104124;28;20291;-79
2021/05/14 05:34:31;;;;;;;5.45;4.95;;;10.80;94.20;;;10.32;76.59;93921.56;5104549;28;21415;-78
2021/05/14 05:36:58;;;;;;;5.65;5.15;;;10.80;94.10;;;10.38;76.64;93923.38;5014669;28;20609;-80
2021/05/14 05:39:24;;;;;;;16.77;10.82;;;10.80;94.10;;;10.40;76.71;93940.47;4910480;28;20269;-79
2021/05/14 05:41:51;;;;;;;13.32;8.52;;;10.90;94.10;;;10.49;76.78;93932.34;4766185;29;20220;-78
2021/05/14 05:44:18;;;;;;;8.95;5.95;;;10.90;94.20;;;10.41;76.50;93915.88;4592823;30;20311;-79
2021/05/14 05:48:34;;;;;;;6.10;5.05;;;11.00;94.20;;;10.52;76.30;93935.34;5127256;27;20988;-78
2021/05/14 05:51:01;;;;;;;5.97;5.38;;;11.00;94.00;;;10.48;76.49;93941.22;5092929;28;20553;-79
2021/05/14 05:53:27;;;;;;;25.75;12.63;;;11.10;94.00;;;10.58;75.93;93944.16;5044204;28;20310;-78
2021/05/14 05:55:54;;;;;;;6.78;4.90;;;11.10;94.10;;;10.57;76.06;93951.22;5002980;28;20233;-78
2021/05/14 05:58:21;;;;;;;9.35;5.50;;;11.10;94.00;;;10.59;75.83;93947.59;4974487;28;20713;-78
2021/05/14 06:00:48;;;;;;;5.65;5.07;;;11.10;94.00;;;10.55;75.69;93953.25;4890310;29;20222;-79
2021/05/14 06:03:15;;;;;;;6.97;5.45;;;11.10;93.90;;;10.57;76.19;93953.84;4875285;29;20237;-79
2021/05/14 06:05:41;;;;;;;7.50;5.38;;;11.20;93.90;;;10.59;76.32;93952.84;4799136;29;20226;-77
2021/05/14 06:10:19;;;;;;;61.53;21.00;;;11.10;94.20;;;10.52;75.73;93958.94;5120148;27;20912;-77
2021/05/14 06:12:46;;;;;;;20.98;10.30;;;11.20;93.80;;;10.52;75.61;93955.50;5085173;28;20222;-77
2021/05/14 06:15:13;;;;;;;25.58;11.32;;;11.10;93.80;;;10.51;75.81;93962.56;5057762;28;20306;-78
2021/05/14 06:17:41;;;;;;;7.47;5.80;;;11.10;93.80;;;10.48;75.93;93965.63;4995595;28;20241;-78
2021/05/14 06:20:12;;;;;;;6.32;4.63;;;11.10;93.70;;;10.46;75.89;93961.59;4947875;28;20212;-80
2021/05/14 06:22:39;;;;;;;4.70;3.90;;;11.00;93.80;;;10.53;76.17;93971.03;4907306;29;20240;-77
2021/05/14 06:25:06;;;;;;;4.40;4.00;;;11.10;93.90;;;10.57;76.20;93977.44;4832253;29;20297;-77
2021/05/14 06:27:33;;;;;;;4.10;3.80;;;11.00;93.90;;;10.57;76.38;93968.78;4650281;30;20250;-77
2021/05/14 06:31:46;;;;;;;5.25;3.80;;;11.00;93.90;;;10.63;76.60;93973.16;5138267;27;20556;-79
2021/05/14 06:34:12;;;;;;;4.18;3.78;;;11.10;94.00;;;10.64;76.23;93971.34;5089011;27;20622;-79
2021/05/14 06:36:39;;;;;;;6.57;3.92;;;11.10;94.00;;;10.70;76.52;93981.75;5062009;28;20207;-79
2021/05/14 06:39:06;;;;;;;5.43;4.25;;;11.20;94.00;;;10.71;76.36;93974.72;5023021;28;20220;-80
2021/05/14 06:41:32;;;;;;;4.93;4.43;;;11.10;94.00;;;10.63;76.58;93960.06;4900881;29;20198;-79
2021/05/14 06:44:00;;;;;;;5.57;4.30;;;11.20;94.10;;;10.78;76.45;93983.31;4784252;29;20296;-79
2021/05/14 06:46:27;;;;;;;4.88;4.40;;;11.20;94.10;;;10.79;76.46;93984.94;4741125;29;20248;-79
2021/05/14 06:48:54;;;;;;;7.25;5.22;;;11.20;94.10;;;10.73;76.18;93975.31;4658527;30;20336;-79
2021/05/14 06:51:32;;;;;;;5.60;5.03;;;11.20;94.10;;;10.83;76.48;93993.16;5150395;27;20314;-78
2021/05/14 06:53:58;;;;;;;4.55;4.07;;;11.20;94.10;;;10.87;76.78;93986.47;5092543;27;20220;-79
2021/05/14 06:56:25;;;;;;;3.80;3.50;;;11.30;94.20;;;10.83;76.12;93985.31;5093349;27;20331;-78
2021/05/14 06:58:54;;;;;;;3.88;3.53;;;11.30;94.10;;;10.90;76.31;94001.78;5069309;28;20227;-78
2021/05/14 07:01:22;;;;;;;3.40;3.10;;;11.30;94.10;;;10.88;76.30;93998.56;4992805;28;20268;-78
2021/05/14 07:03:50;;;;;;;3.50;3.20;;;11.30;94.00;;;10.94;76.26;94008.19;4837702;29;20228;-78
2021/05/14 07:06:18;;;;;;;4.68;3.25;;;11.40;94.10;;;10.95;76.37;94006.34;4701092;29;20325;-78
2021/05/14 07:08:50;;;;;;;3.75;3.30;;;11.40;94.10;;;10.98;76.15;93996.25;4292881;31;20257;-78
2021/05/14 07:11:28;;;;;;;3.65;3.22;;;11.40;94.10;;;10.95;76.55;93999.31;5140371;27;20308;-78
2021/05/14 07:13:54;;;;;;;3.35;3.05;;;11.50;94.10;;;11.01;76.36;94010.75;5069272;28;20221;-77
2021/05/14 07:16:21;;;;;;;3.20;2.90;;;11.40;94.10;;;11.04;76.44;94003.25;5070543;28;20581;-78
2021/05/14 07:18:47;;;;;;;3.58;3.20;;;11.50;94.20;;;11.08;76.06;94024.59;5068364;28;20282;-78
2021/05/14 07:21:14;;;;;;;2.83;2.63;;;11.50;94.10;;;11.07;76.26;94016.97;5006038;28;20195;-78
2021/05/14 07:23:54;;;;;;;3.55;2.70;;;11.50;94.10;;;11.08;76.23;94024.59;4896748;29;20236;-78
2021/05/14 07:26:21;;;;;;;2.70;2.50;;;11.50;94.10;;;11.05;76.04;94010.09;4737576;29;20800;-78
2021/05/14 07:28:48;;;;;;;3.38;3.08;;;11.60;94.10;;;11.09;76.07;94015.72;4595157;30;20253;-78
2021/05/14 07:33:54;;;;;;;2.78;2.53;;;11.60;94.00;;;11.04;76.13;94018.19;5122941;27;20568;-78
2021/05/14 07:36:20;;;;;;;3.30;2.97;;;11.50;93.90;;;11.05;76.18;94022.44;5077511;28;20224;-78
2021/05/14 07:38:47;;;;;;;3.25;2.72;;;11.50;93.90;;;11.04;75.79;94026.84;5090144;28;20322;-78
2021/05/14 07:41:13;;;;;;;3.00;2.60;;;11.50;93.90;;;11.02;75.84;94023.66;5013438;28;20630;-78
2021/05/14 07:43:40;;;;;;;2.70;2.50;;;11.50;93.90;;;10.99;75.53;94026.72;4964691;28;20248;-78
2021/05/14 07:46:07;;;;;;;2.78;2.58;;;11.60;93.80;;;10.96;75.81;94026.34;4927858;28;20208;-78
2021/05/14 07:48:34;;;;;;;3.38;2.80;;;11.60;93.90;;;10.96;76.18;94018.47;4808227;29;20229;-77
2021/05/14 07:51:01;;;;;;;4.05;2.90;;;11.50;94.00;;;11.01;76.43;94029.94;4639181;29;20304;-78
2021/05/14 07:55:35;;;;;;;3.22;2.92;;;11.50;94.10;;;11.08;76.92;94029.06;5118226;27;20567;-78
2021/05/14 07:58:02;;;;;;;3.75;2.95;;;11.60;94.20;;;11.09;76.78;94025.41;5078310;28;20244;-78
2021/05/14 08:00:29;;;;;;;2.97;2.70;;;11.50;94.50;;;11.12;76.86;94022.34;5062169;28;20206;-78
2021/05/14 08:02:55;;;;;;;2.90;2.70;;;11.60;94.30;;;11.18;76.51;94030.19;5045372;28;20274;-79
2021/05/14 08:05:22;;;;;;;2.90;2.70;;;11.70;94.30;;;11.25;76.49;94037.19;4976157;28;20648;-77
2021/05/14 08:08:08;;;;;;;3.03;2.70;;;11.60;94.20;;;11.25;76.03;94029.31;4897046;28;20231;-78
2021/05/14 08:10:35;;;;;;;3.42;2.80;;;11.70;94.10;;;11.27;76.42;94035.16;4769874;29;20762;-78
2021/05/14 08:13:17;;;;;;;3.95;3.55;;;11.70;94.20;;;11.28;76.54;94034.09;4457455;30;20251;-78
2021/05/14 08:15:55;;;;;;;5.88;3.50;;;11.70;94.20;;;11.17;76.71;94020.69;5139818;27;20302;-78
2021/05/14 08:18:22;;;;;;;4.15;3.72;;;11.70;94.30;;;11.42;77.10;94051.31;5085531;28;20224;-78
2021/05/14 08:20:49;;;;;;;3.63;3.33;;;11.80;94.40;;;11.51;77.62;94044.78;5062591;28;20210;-78
2021/05/14 08:23:19;;;;;;;4.00;3.60;;;11.90;94.70;;;11.64;77.84;94056.94;5022190;28;20217;-78
2021/05/14 08:25:47;;;;;;;3.67;3.38;;;11.90;94.80;;;11.77;77.89;94052.59;4932879;28;20221;-78
2021/05/14 08:28:14;;;;;;;4.32;3.92;;;12.00;94.90;;;11.84;77.46;94046.22;4891388;29;20236;-80
2021/05/14 08:30:42;;;;;;;4.07;3.67;;;12.00;94.90;;;11.96;77.59;94048.94;4840622;29;20653;-78
2021/05/14 08:33:10;;;;;;;3.75;3.42;;;12.20;95.00;;;12.10;78.09;94051.41;4695307;30;20230;-78
2021/05/14 08:38:35;;;;;;;5.07;4.07;;;12.40;95.10;;;12.33;78.03;94043.59;5115299;27;20585;-78
2021/05/14 08:41:08;;;;;;;4.75;4.10;;;12.60;95.30;;;12.41;77.18;94044.28;5089731;28;20205;-78
2021/05/14 08:43:37;;;;;;;4.30;3.90;;;12.60;95.10;;;12.51;77.43;94051.63;5069535;28;20234;-78
2021/05/14 08:46:04;;;;;;;4.65;3.75;;;12.70;95.10;;;12.53;77.32;94058.28;5001705;28;20204;-78
2021/05/14 08:48:35;;;;;;;6.47;5.30;;;12.70;95.00;;;12.58;76.65;94054.97;5007565;28;20311;-78
2021/05/14 08:51:10;;;;;;;5.85;4.70;;;12.80;94.90;;;12.60;77.02;94053.72;4978834;28;20301;-79
2021/05/14 08:53:39;;;;;;;11.52;7.30;;;12.90;94.80;;;12.66;76.77;94052.03;4836896;29;20266;-78
2021/05/14 08:56:06;;;;;;;7.65;6.22;;;13.00;94.90;;;12.63;76.66;94047.19;4692920;30;20215;-78
2021/05/14 09:00:16;;;;;;;4.43;4.00;;;13.00;94.80;;;12.66;76.51;94057.28;5147586;27;21073;-78
2021/05/14 09:02:43;;;;;;;4.25;3.60;;;13.00;94.70;;;12.67;76.37;94064.16;5099302;28;20225;-78
2021/05/14 09:05:33;;;;;;;4.10;3.70;;;13.10;94.60;;;12.65;75.92;94058.31;5077571;28;20213;-78
2021/05/14 09:08:02;;;;;;;4.82;4.20;;;13.10;94.50;;;12.68;76.59;94071.00;5010285;28;20234;-78
2021/05/14 09:10:34;;;;;;;4.15;3.63;;;13.10;94.60;;;12.70;76.67;94079.47;4980134;28;20293;-77
2021/05/14 09:13:11;;;;;;;5.57;4.18;;;13.10;94.60;;;12.71;76.28;94080.28;4864775;29;20233;-78
2021/05/14 09:15:41;;;;;;;4.43;3.28;;;13.00;94.40;;;12.68;76.75;94065.75;4705622;30;20225;-78
2021/05/14 09:18:20;;;;;;;4.35;3.95;;;13.10;94.60;;;12.77;76.86;94082.03;4566721;30;20342;-78
2021/05/14 09:23:34;;;;;;;3.50;3.20;;;13.10;94.60;;;12.81;76.58;94081.31;5137180;27;20554;-78
2021/05/14 09:26:10;;;;;;;3.75;2.85;;;13.20;94.60;;;12.90;76.94;94087.09;5044747;28;20205;-77
2021/05/14 09:28:48;;;;;;;3.72;3.15;;;13.10;94.70;;;12.87;76.77;94084.88;5072246;28;20217;-78
2021/05/14 09:31:29;;;;;;;4.72;3.30;;;13.20;94.60;;;12.94;76.69;94090.06;5068416;28;20206;-79
2021/05/14 09:33:58;;;;;;;3.92;3.53;;;13.20;94.60;;;13.03;77.46;94090.53;5019911;28;20723;-77
2021/05/14 09:36:33;;;;;;;3.58;3.28;;;13.30;94.90;;;13.08;77.25;94088.00;4822916;29;20235;-79
2021/05/14 09:39:09;;;;;;;3.78;3.47;;;13.30;94.90;;;13.15;76.80;94091.34;4840896;29;20216;-78
2021/05/14 09:41:43;;;;;;;3.88;3.55;;;13.40;95.00;;;13.24;77.81;94086.53;4747799;29;20320;-78
2021/05/14 09:44:21;;;;;;;4.95;3.80;;;13.40;95.20;;;13.36;77.99;94087.31;5126093;27;20323;-78
2021/05/14 09:46:57;;;;;;;4.22;3.83;;;13.50;95.60;;;13.52;78.35;94077.97;5085817;28;20200;-78
2021/05/14 09:49:28;;;;;;;5.95;4.50;;;13.60;95.50;;;13.63;77.67;94086.88;5106693;27;20196;-79
2021/05/14 09:52:05;;;;;;;4.60;4.20;;;13.70;95.60;;;13.64;77.52;94066.63;5093572;28;20660;-79
2021/05/14 09:54:40;;;;;;;4.80;4.35;;;13.80;95.60;;;13.90;78.40;94089.03;4967032;28;20216;-78
2021/05/14 09:57:14;;;;;;;6.22;5.00;;;14.00;95.90;;;14.10;78.73;94086.00;4893496;29;20313;-78
2021/05/14 09:59:42;;;;;;;5.88;4.70;;;14.10;96.30;;;14.28;78.65;94082.41;4843141;29;20208;-78
2021/05/14 10:02:26;;;;;;;5.55;5.05;;;14.20;96.40;;;14.43;78.30;94079.22;4692204;30;20214;-78
2021/05/14 10:06:46;;;;;;;5.95;4.63;;;14.40;96.30;;;14.69;78.98;94074.44;5148227;27;20554;-78
2021/05/14 10:09:19;;;;;;;6.00;4.55;;;14.70;96.50;;;14.72;78.84;94058.91;5125156;27;20644;-79
2021/05/14 10:11:45;;;;;;;5.13;4.57;;;14.80;96.60;;;14.94;77.32;94081.16;5071521;28;20695;-78
2021/05/14 10:14:12;;;;;;;5.70;4.22;;;14.90;96.40;;;15.08;76.61;94086.94;5088536;28;20235;-78
2021/05/14 10:16:38;;;;;;;4.82;4.43;;;15.10;96.10;;;15.11;75.67;94084.63;5055352;28;20272;-79
2021/05/14 10:19:06;;;;;;;10.45;7.63;;;15.10;95.90;;;15.11;76.94;94078.53;4991253;28;20217;-79
2021/05/14 10:21:33;;;;;;;4.90;4.40;;;15.20;95.90;;;15.15;76.32;94088.38;4867146;28;20215;-78
2021/05/14 10:23:59;;;;;;;4.28;3.88;;;15.30;95.90;;;15.26;76.17;94083.22;4772873;29;20239;-78
2021/05/14 10:29:14;;;;;;;5.60;4.70;;;15.40;95.80;;;15.42;77.15;94076.34;5132107;27;21167;-78
2021/05/14 10:31:46;;;;;;;5.13;4.38;;;15.50;95.60;;;15.51;77.67;94074.88;5078349;28;20576;-78
2021/05/14 10:34:17;;;;;;;4.85;4.45;;;15.60;95.80;;;15.64;77.45;94087.75;5046774;28;20594;-78
2021/05/14 10:36:46;;;;;;;6.93;5.20;;;15.70;95.80;;;15.72;77.34;94085.75;5004161;28;20204;-79
2021/05/14 10:39:16;;;;;;;5.70;5.20;;;15.70;95.80;;;15.87;77.28;94093.09;4934722;28;20266;-78
2021/05/14 10:42:02;;;;;;;6.32;5.43;;;15.90;96.10;;;15.99;77.35;94081.38;4869789;29;20558;-79
2021/05/14 10:44:53;;;;;;;8.55;6.05;;;15.90;95.80;;;16.15;77.67;94078.91;4727049;29;20367;-79
2021/05/14 10:49:41;;;;;;;8.40;6.15;;;16.00;95.90;;;16.46;78.20;94089.81;5140151;27;20563;-79
2021/05/14 10:52:07;;;;;;;6.80;6.10;;;16.30;96.30;;;16.69;78.80;94095.88;5073106;28;20193;-79
2021/05/14 10:54:40;;;;;;;7.65;6.70;;;16.40;96.90;;;16.85;77.86;94081.72;5052932;28;20210;-79
2021/05/14 10:57:09;;;;;;;9.38;6.38;;;16.60;96.60;;;17.01;77.57;94082.69;5070396;28;20209;-78
2021/05/14 10:59:41;;;;;;;6.60;5.70;;;16.70;96.80;;;17.17;77.51;94088.13;5039048;28;20262;-78
2021/05/14 11:02:28;;;;;;;6.82;6.13;;;16.90;96.60;;;17.25;76.06;94095.59;5046895;28;20199;-79
2021/05/14 11:04:59;;;;;;;7.07;5.28;;;17.00;96.20;;;17.26;76.45;94092.69;4969399;28;20210;-79
2021/05/14 11:07:41;;;;;;;5.53;4.95;;;17.10;96.10;;;17.35;76.49;94095.66;5143747;27;21001;-79
2021/05/14 11:10:13;;;;;;;7.82;5.00;;;17.20;95.90;;;17.40;75.77;94092.25;5064109;28;20198;-78
2021/05/14 11:12:45;;;;;;;5.07;4.45;;;17.20;95.70;;;17.40;76.12;94090.38;5083233;28;20211;-79
2021/05/14 11:15:21;;;;;;;4.85;4.32;;;17.30;95.60;;;17.35;74.44;94089.56;5042273;28;20717;-82
2021/05/14 11:18:06;;;;;;;5.00;4.60;;;17.30;95.20;;;17.36;75.54;94093.81;5003878;28;20232;-79
2021/05/14 11:20:48;;;;;;;5.38;4.57;;;17.40;95.20;;;17.31;75.54;94099.88;5032601;28;20210;-79
2021/05/14 11:23:39;;;;;;;5.85;4.97;;;17.40;95.30;;;17.33;75.45;94096.97;4985787;28;20251;-79
2021/05/14 11:29:49;;;;;;;4.30;3.90;;;17.40;95.20;;;17.46;76.61;94091.22;5129744;27;20580;-79